METARs


 

Curacao


TNCC 200100Z 06010KT 9999 FEW018 29/24 Q1010 NOSIG

 

Aruba


TNCA 200100Z 05008KT 9999 FEW018 29/23 Q1010 NOSIG

 

Bonaire


TNCB 200055Z AUTO 07004KT 030V100 9999 BKN019/// OVC024/// 29/25 Q1010

 

 

TAFs


 

Curacao


TAF TNCC 191715Z 1918/2018 VRB03KT 9999 SCT020 TEMPO 1918/2016 6000 SHRA BKN014 PROB30 TEMPO 1918/2012 VRB05G20KT 3000 TSRA FEW012CB

Aruba


TAF TNCA 191715Z 1918/2018 VRB03KT 9999 SCT020 TEMPO 1918/2016 6000 SHRA BKN014 PROB30 TEMPO 1918/2012 VRB05G20KT 3000 TSRA FEW012CB

Bonaire


TAF TAF TNCB 191642Z 1918/2024 06006KT 9999 SCT020 PROB30 TEMPO 2012/2020 5000 SHRA SCT018CB BECMG 2018/2021 09012KT

 

 

Caribbean Surface Analysis